Time;durP1;ratioP1;P1;durP2;ratioP2;P2;SDS_P1;SDS_P2;PMS_P1;PMS_P2;Temp;Humidity;BMP_temperature;BMP_pressure;BME280_temperature;BME280_humidity;BME280_pressure;Samples;Min_cycle;Max_cycle;Signal;HPM_P1;HPM_P2
2023/09/30 00:02:24;;;;;;;14.52;4.57;;;;;;;;;;5114060;28;20016;-39
2023/09/30 00:04:50;;;;;;;15.10;4.95;;;;;;;;;;5114284;28;20024;-39
2023/09/30 00:07:15;;;;;;;16.90;5.27;;;;;;;;;;5113729;28;20018;-39
2023/09/30 00:09:40;;;;;;;15.95;4.80;;;;;;;;;;5113581;28;20600;-38
2023/09/30 00:12:06;;;;;;;14.83;5.23;;;;;;;;;;5113938;28;20386;-39
2023/09/30 00:14:32;;;;;;;16.50;5.22;;;;;;;;;;5096118;28;20248;-39
2023/09/30 00:16:57;;;;;;;14.00;4.88;;;;;;;;;;5114213;28;20028;-39
2023/09/30 00:19:22;;;;;;;16.27;5.32;;;;;;;;;;5095345;28;20073;-39
2023/09/30 00:21:48;;;;;;;18.38;5.28;;;;;;;;;;5113566;28;20461;-39
2023/09/30 00:24:13;;;;;;;16.15;5.05;;;;;;;;;;5095346;28;20462;-39
2023/09/30 00:26:38;;;;;;;17.55;4.85;;;;;;;;;;5113508;28;20022;-39
2023/09/30 00:29:04;;;;;;;16.13;5.07;;;;;;;;;;5113403;28;20035;-40
2023/09/30 00:31:30;;;;;;;18.50;5.35;;;;;;;;;;5113783;28;20041;-39
2023/09/30 00:33:55;;;;;;;15.35;5.07;;;;;;;;;;5113271;28;20111;-40
2023/09/30 00:36:21;;;;;;;15.57;5.40;;;;;;;;;;5116175;28;20016;-39
2023/09/30 00:38:46;;;;;;;19.85;5.78;;;;;;;;;;5116560;28;20393;-39
2023/09/30 00:41:11;;;;;;;17.03;5.67;;;;;;;;;;5117273;28;20463;-39
2023/09/30 00:43:37;;;;;;;15.77;5.70;;;;;;;;;;5117661;28;20273;-39
2023/09/30 00:46:05;;;;;;;14.13;5.45;;;;;;;;;;5117495;28;20642;-39
2023/09/30 00:48:31;;;;;;;15.95;5.70;;;;;;;;;;5116778;28;20084;-39
2023/09/30 00:50:57;;;;;;;19.65;5.63;;;;;;;;;;5098673;28;20011;-39
2023/09/30 00:53:22;;;;;;;18.42;5.82;;;;;;;;;;5117089;28;20378;-39
2023/09/30 00:55:47;;;;;;;20.30;6.03;;;;;;;;;;5116976;28;20401;-39
2023/09/30 00:58:12;;;;;;;20.88;6.55;;;;;;;;;;5117319;28;20268;-40
2023/09/30 01:00:38;;;;;;;18.38;6.65;;;;;;;;;;5116916;28;20064;-40
2023/09/30 01:03:03;;;;;;;13.43;5.77;;;;;;;;;;5117472;28;20114;-41
2023/09/30 01:05:30;;;;;;;14.27;5.63;;;;;;;;;;5117058;28;20257;-39
2023/09/30 01:07:55;;;;;;;14.25;5.72;;;;;;;;;;5117000;28;20067;-39
2023/09/30 01:10:20;;;;;;;17.10;5.73;;;;;;;;;;5098402;28;20378;-38
2023/09/30 01:12:46;;;;;;;18.27;6.47;;;;;;;;;;5116708;28;20256;-38
2023/09/30 01:15:12;;;;;;;14.95;5.88;;;;;;;;;;5116741;28;20293;-39
2023/09/30 01:17:37;;;;;;;18.25;6.45;;;;;;;;;;5116887;28;20382;-39
2023/09/30 01:20:06;;;;;;;14.13;6.20;;;;;;;;;;5116566;28;20122;-39
2023/09/30 01:22:32;;;;;;;15.77;5.80;;;;;;;;;;5116502;28;20015;-39
2023/09/30 01:24:57;;;;;;;18.52;5.30;;;;;;;;;;5098546;28;20008;-39
2023/09/30 01:27:23;;;;;;;15.70;5.70;;;;;;;;;;5116358;28;20462;-39
2023/09/30 01:29:49;;;;;;;10.18;5.32;;;;;;;;;;5098020;28;20281;-39
2023/09/30 01:32:14;;;;;;;12.68;5.43;;;;;;;;;;5097972;28;20019;-39
2023/09/30 01:34:39;;;;;;;14.10;5.82;;;;;;;;;;5116810;28;20358;-39
2023/09/30 01:37:06;;;;;;;20.03;6.47;;;;;;;;;;5116211;28;20011;-41
2023/09/30 01:39:32;;;;;;;14.32;5.75;;;;;;;;;;5116093;28;20269;-39
2023/09/30 01:41:57;;;;;;;16.45;6.05;;;;;;;;;;5116702;28;20020;-40
2023/09/30 01:44:23;;;;;;;16.13;6.03;;;;;;;;;;5116429;28;20069;-39
2023/09/30 01:46:48;;;;;;;20.17;6.57;;;;;;;;;;5115876;28;20410;-39
2023/09/30 01:49:13;;;;;;;18.80;6.47;;;;;;;;;;5115928;28;20289;-39
2023/09/30 01:51:38;;;;;;;16.20;6.13;;;;;;;;;;5116179;28;20314;-39
2023/09/30 01:54:03;;;;;;;16.65;6.30;;;;;;;;;;5115933;28;20253;-39
2023/09/30 01:56:30;;;;;;;14.80;6.20;;;;;;;;;;5097570;28;20023;-39
2023/09/30 01:58:55;;;;;;;19.42;7.03;;;;;;;;;;5116340;28;20026;-39
2023/09/30 02:01:21;;;;;;;22.25;6.85;;;;;;;;;;5116530;28;20434;-39
2023/09/30 02:03:46;;;;;;;18.80;7.07;;;;;;;;;;5116247;28;20066;-39
2023/09/30 02:06:12;;;;;;;17.10;6.35;;;;;;;;;;5115901;28;20370;-39
2023/09/30 02:08:37;;;;;;;20.08;7.35;;;;;;;;;;5115850;28;20426;-39
2023/09/30 02:11:05;;;;;;;21.43;6.60;;;;;;;;;;5115565;28;20016;-39
2023/09/30 02:13:31;;;;;;;16.70;7.32;;;;;;;;;;5115485;28;20258;-39
2023/09/30 02:15:56;;;;;;;18.05;6.70;;;;;;;;;;5115528;28;20423;-39
2023/09/30 02:18:23;;;;;;;13.63;6.47;;;;;;;;;;5115391;28;20015;-39
2023/09/30 02:20:50;;;;;;;15.40;6.85;;;;;;;;;;5080478;28;20019;-39
2023/09/30 02:23:17;;;;;;;17.10;6.97;;;;;;;;;;5115853;28;20027;-39
2023/09/30 02:25:43;;;;;;;17.63;6.85;;;;;;;;;;5115242;28;20099;-40
2023/09/30 02:28:08;;;;;;;18.65;7.25;;;;;;;;;;5115158;28;20020;-39
2023/09/30 02:30:33;;;;;;;14.98;6.75;;;;;;;;;;5115149;28;20016;-39
2023/09/30 02:32:59;;;;;;;17.87;6.90;;;;;;;;;;5115069;28;20086;-39
2023/09/30 02:35:25;;;;;;;15.40;7.20;;;;;;;;;;5114974;28;20253;-39
2023/09/30 02:37:51;;;;;;;19.05;7.25;;;;;;;;;;5115224;28;20100;-42
2023/09/30 02:40:16;;;;;;;16.98;7.50;;;;;;;;;;5096665;28;20154;-39
2023/09/30 02:42:42;;;;;;;18.35;7.45;;;;;;;;;;5114949;28;20086;-39
2023/09/30 02:45:08;;;;;;;18.00;7.53;;;;;;;;;;5115431;28;20099;-39
2023/09/30 02:47:34;;;;;;;17.95;8.20;;;;;;;;;;5114720;28;20026;-39
2023/09/30 02:49:59;;;;;;;15.10;8.07;;;;;;;;;;5114684;28;20057;-38
2023/09/30 02:52:25;;;;;;;20.15;8.80;;;;;;;;;;5115266;28;20022;-39
2023/09/30 02:54:50;;;;;;;20.40;8.48;;;;;;;;;;5114642;28;20016;-39
2023/09/30 02:57:15;;;;;;;20.15;8.45;;;;;;;;;;5114310;28;20055;-39
2023/09/30 02:59:41;;;;;;;16.45;7.82;;;;;;;;;;5114507;28;20043;-40
2023/09/30 03:02:06;;;;;;;17.25;8.45;;;;;;;;;;5114470;28;20520;-39
2023/09/30 03:04:32;;;;;;;16.35;8.05;;;;;;;;;;5114752;28;20107;-39
2023/09/30 03:06:57;;;;;;;20.58;8.70;;;;;;;;;;5114714;28;20408;-39
2023/09/30 03:09:23;;;;;;;22.48;9.13;;;;;;;;;;5114408;28;20038;-39
2023/09/30 03:11:48;;;;;;;17.30;9.37;;;;;;;;;;5113539;28;20066;-39
2023/09/30 03:14:13;;;;;;;20.50;8.90;;;;;;;;;;5114311;28;20254;-39
2023/09/30 03:16:40;;;;;;;19.65;8.43;;;;;;;;;;5114886;28;20094;-39
2023/09/30 03:19:05;;;;;;;24.58;9.30;;;;;;;;;;5114191;28;20026;-39
2023/09/30 03:21:30;;;;;;;22.30;10.02;;;;;;;;;;5114511;28;20011;-39
2023/09/30 03:23:56;;;;;;;19.17;8.83;;;;;;;;;;5114241;28;20385;-39
2023/09/30 03:26:21;;;;;;;18.20;9.27;;;;;;;;;;5114381;28;20262;-39
2023/09/30 03:28:47;;;;;;;16.77;8.90;;;;;;;;;;5114631;28;20020;-39
2023/09/30 03:31:12;;;;;;;19.05;8.82;;;;;;;;;;5114376;28;20305;-40
2023/09/30 03:33:37;;;;;;;19.73;9.23;;;;;;;;;;5114416;28;20019;-39
2023/09/30 03:36:03;;;;;;;19.65;8.95;;;;;;;;;;5114026;28;20351;-39
2023/09/30 03:38:29;;;;;;;19.65;8.88;;;;;;;;;;5114273;28;20024;-39
2023/09/30 03:40:54;;;;;;;20.73;9.27;;;;;;;;;;5114241;28;20020;-39
2023/09/30 03:43:20;;;;;;;20.20;9.38;;;;;;;;;;5114484;28;20027;-39
2023/09/30 03:45:46;;;;;;;20.90;9.70;;;;;;;;;;5113976;28;20023;-39
2023/09/30 03:48:11;;;;;;;21.90;9.82;;;;;;;;;;5113893;28;20044;-39
2023/09/30 03:50:37;;;;;;;22.73;9.70;;;;;;;;;;5113899;28;20020;-38
2023/09/30 03:53:04;;;;;;;20.90;9.77;;;;;;;;;;5113872;28;20257;-39
2023/09/30 03:55:30;;;;;;;21.95;10.05;;;;;;;;;;5095628;28;20018;-39
2023/09/30 03:57:55;;;;;;;22.33;10.32;;;;;;;;;;5114417;28;20011;-39
2023/09/30 04:00:21;;;;;;;22.42;10.57;;;;;;;;;;5113804;28;20012;-39
2023/09/30 04:02:51;;;;;;;22.23;10.05;;;;;;;;;;5114068;28;20497;-39
2023/09/30 04:05:17;;;;;;;23.77;10.45;;;;;;;;;;5113727;28;20026;-39
2023/09/30 04:07:42;;;;;;;24.40;10.55;;;;;;;;;;5114033;28;20020;-39
2023/09/30 04:10:08;;;;;;;21.85;10.23;;;;;;;;;;5115475;28;20016;-39
2023/09/30 04:12:33;;;;;;;20.92;10.52;;;;;;;;;;5117767;28;20048;-38
2023/09/30 04:14:59;;;;;;;25.83;10.50;;;;;;;;;;5099523;28;20012;-39
2023/09/30 04:17:26;;;;;;;19.95;9.93;;;;;;;;;;5118043;28;20015;-39
2023/09/30 04:19:51;;;;;;;28.50;11.93;;;;;;;;;;5118006;28;20020;-39
2023/09/30 04:22:17;;;;;;;22.00;10.90;;;;;;;;;;5118228;28;20012;-39
2023/09/30 04:24:42;;;;;;;23.13;10.50;;;;;;;;;;5117599;28;20016;-38
2023/09/30 04:27:07;;;;;;;21.73;10.77;;;;;;;;;;5117613;28;20426;-39
2023/09/30 04:29:33;;;;;;;23.65;11.07;;;;;;;;;;5117752;28;20020;-38
2023/09/30 04:31:58;;;;;;;19.20;10.70;;;;;;;;;;5117516;28;20014;-39
2023/09/30 04:34:23;;;;;;;19.13;10.85;;;;;;;;;;5099285;28;20015;-39
2023/09/30 04:36:49;;;;;;;22.35;11.52;;;;;;;;;;5117345;28;20020;-39
2023/09/30 04:39:14;;;;;;;25.05;11.60;;;;;;;;;;5117298;28;20098;-39
2023/09/30 04:41:41;;;;;;;24.42;12.02;;;;;;;;;;5117619;28;20043;-39
2023/09/30 04:44:06;;;;;;;26.15;11.93;;;;;;;;;;5115901;28;20016;-39
2023/09/30 04:46:32;;;;;;;24.48;11.60;;;;;;;;;;5117438;28;20035;-39
2023/09/30 04:48:57;;;;;;;28.27;11.25;;;;;;;;;;5117013;28;20046;-39
2023/09/30 04:51:24;;;;;;;26.85;12.00;;;;;;;;;;5115954;28;20315;-39
2023/09/30 04:53:50;;;;;;;24.75;11.88;;;;;;;;;;5114936;28;20043;-41
2023/09/30 04:56:15;;;;;;;23.48;11.90;;;;;;;;;;5115057;28;20043;-39
2023/09/30 04:58:41;;;;;;;24.23;11.83;;;;;;;;;;5114825;28;20015;-39
2023/09/30 05:01:09;;;;;;;29.20;12.07;;;;;;;;;;5115028;28;20265;-39
2023/09/30 05:03:35;;;;;;;23.33;11.55;;;;;;;;;;5114694;28;20051;-39
2023/09/30 05:06:00;;;;;;;22.35;11.93;;;;;;;;;;5115304;28;20031;-39
2023/09/30 05:08:25;;;;;;;22.87;12.33;;;;;;;;;;5114887;28;20351;-39
2023/09/30 05:10:51;;;;;;;27.83;12.40;;;;;;;;;;5114546;28;20999;-44
2023/09/30 05:13:17;;;;;;;20.92;11.75;;;;;;;;;;5117004;28;20087;-39
2023/09/30 05:15:42;;;;;;;25.50;12.68;;;;;;;;;;5098349;28;20064;-39
2023/09/30 05:18:10;;;;;;;25.80;12.32;;;;;;;;;;5116894;28;20020;-39
2023/09/30 05:20:37;;;;;;;22.95;11.80;;;;;;;;;;5116133;28;20019;-39
2023/09/30 05:23:02;;;;;;;28.77;12.93;;;;;;;;;;5116787;28;20020;-38
2023/09/30 05:25:28;;;;;;;30.63;12.23;;;;;;;;;;5116680;28;20045;-39
2023/09/30 05:27:54;;;;;;;28.35;12.98;;;;;;;;;;5116864;28;20027;-38
2023/09/30 05:30:20;;;;;;;24.35;13.00;;;;;;;;;;5116578;28;20103;-39
2023/09/30 05:32:46;;;;;;;28.40;12.43;;;;;;;;;;5116249;28;20051;-39
2023/09/30 05:35:12;;;;;;;23.88;12.27;;;;;;;;;;5116210;28;20019;-38
2023/09/30 05:37:38;;;;;;;24.08;12.57;;;;;;;;;;5097848;28;20012;-38
2023/09/30 05:40:09;;;;;;;24.90;13.02;;;;;;;;;;5116119;28;20068;-39
2023/09/30 05:42:35;;;;;;;33.88;13.30;;;;;;;;;;5116442;28;20458;-39
2023/09/30 05:45:00;;;;;;;24.25;12.98;;;;;;;;;;5116384;28;20068;-39
2023/09/30 05:47:26;;;;;;;25.57;13.03;;;;;;;;;;5116137;28;20032;-39
2023/09/30 05:49:51;;;;;;;23.20;12.70;;;;;;;;;;5115805;28;20343;-39
2023/09/30 05:52:16;;;;;;;31.08;13.32;;;;;;;;;;5116233;28;20043;-39
2023/09/30 05:54:41;;;;;;;26.43;12.60;;;;;;;;;;5097689;28;20054;-39
2023/09/30 05:57:07;;;;;;;26.87;12.43;;;;;;;;;;5114330;28;20633;-39
2023/09/30 05:59:33;;;;;;;27.45;12.55;;;;;;;;;;5115817;28;20251;-39
2023/09/30 06:01:58;;;;;;;23.03;12.00;;;;;;;;;;5115792;28;20015;-38
2023/09/30 06:04:23;;;;;;;25.90;12.67;;;;;;;;;;5116273;28;20307;-39
2023/09/30 06:06:48;;;;;;;24.98;11.43;;;;;;;;;;5115673;28;20268;-39
2023/09/30 06:09:13;;;;;;;25.45;11.70;;;;;;;;;;5115439;28;20023;-39
2023/09/30 06:11:41;;;;;;;25.43;12.63;;;;;;;;;;5116143;28;20026;-39
2023/09/30 06:14:06;;;;;;;26.90;11.63;;;;;;;;;;5097116;28;20462;-38
2023/09/30 06:16:31;;;;;;;31.80;12.20;;;;;;;;;;5115765;28;20023;-39
2023/09/30 06:18:57;;;;;;;22.52;11.55;;;;;;;;;;5115666;28;20040;-39
2023/09/30 06:21:24;;;;;;;24.70;12.05;;;;;;;;;;5115383;28;20081;-39
2023/09/30 06:23:51;;;;;;;25.30;12.00;;;;;;;;;;5097419;28;20102;-39
2023/09/30 06:26:17;;;;;;;24.35;12.25;;;;;;;;;;5115559;28;20080;-39
2023/09/30 06:28:42;;;;;;;28.27;12.65;;;;;;;;;;5115696;28;20027;-39
2023/09/30 06:31:08;;;;;;;28.10;12.57;;;;;;;;;;5115177;28;20011;-41
2023/09/30 06:33:33;;;;;;;28.90;12.90;;;;;;;;;;5114251;28;20018;-38
2023/09/30 06:36:01;;;;;;;23.85;11.60;;;;;;;;;;5096777;28;20080;-38
2023/09/30 06:38:27;;;;;;;21.27;12.05;;;;;;;;;;5115759;28;20019;-38
2023/09/30 06:40:53;;;;;;;26.60;11.68;;;;;;;;;;5114979;28;20065;-38
2023/09/30 06:43:19;;;;;;;24.05;12.07;;;;;;;;;;5115224;28;20463;-39
2023/09/30 06:45:46;;;;;;;24.23;11.85;;;;;;;;;;5115168;28;20092;-38
2023/09/30 06:48:12;;;;;;;23.35;12.30;;;;;;;;;;5114746;28;20400;-39
2023/09/30 06:50:45;;;;;;;21.75;11.35;;;;;;;;;;5114696;28;20008;-39
2023/09/30 06:53:10;;;;;;;23.27;12.23;;;;;;;;;;5115238;28;20039;-38
2023/09/30 06:55:37;;;;;;;24.57;11.67;;;;;;;;;;5096417;28;20068;-39
2023/09/30 06:58:02;;;;;;;21.80;12.70;;;;;;;;;;5114947;28;20604;-38
2023/09/30 07:00:27;;;;;;;29.17;13.25;;;;;;;;;;5114552;28;20016;-38
2023/09/30 07:02:52;;;;;;;27.87;12.67;;;;;;;;;;5115183;28;20016;-38
2023/09/30 07:05:18;;;;;;;24.63;13.23;;;;;;;;;;5114853;28;20604;-39
2023/09/30 07:07:43;;;;;;;30.10;12.90;;;;;;;;;;5115048;28;20265;-39
2023/09/30 07:10:09;;;;;;;24.60;12.43;;;;;;;;;;5114386;28;20103;-39
2023/09/30 07:12:35;;;;;;;21.98;11.98;;;;;;;;;;5114576;28;20374;-39
2023/09/30 07:15:01;;;;;;;21.13;12.50;;;;;;;;;;5114584;28;20369;-38
2023/09/30 07:17:26;;;;;;;30.02;12.40;;;;;;;;;;5114359;28;20022;-38
2023/09/30 07:19:51;;;;;;;27.63;12.65;;;;;;;;;;5114556;28;20021;-39
2023/09/30 07:22:17;;;;;;;27.20;12.37;;;;;;;;;;5114231;28;20489;-38
2023/09/30 07:24:42;;;;;;;21.73;11.13;;;;;;;;;;5114786;28;20103;-39
2023/09/30 07:27:07;;;;;;;22.67;11.63;;;;;;;;;;5114711;28;20282;-38
2023/09/30 07:29:33;;;;;;;19.93;11.43;;;;;;;;;;5114113;28;20016;-38
2023/09/30 07:31:58;;;;;;;25.75;11.77;;;;;;;;;;5095899;28;20015;-38
2023/09/30 07:34:23;;;;;;;25.20;11.98;;;;;;;;;;5114153;28;20027;-39
2023/09/30 07:36:48;;;;;;;24.50;12.10;;;;;;;;;;5114337;28;20103;-39
2023/09/30 07:39:13;;;;;;;19.40;12.00;;;;;;;;;;5114011;28;20019;-39
2023/09/30 07:41:39;;;;;;;25.30;11.60;;;;;;;;;;5114318;28;20253;-38
2023/09/30 07:44:05;;;;;;;25.03;12.57;;;;;;;;;;5114095;28;20747;-39
2023/09/30 07:46:30;;;;;;;23.42;11.90;;;;;;;;;;5113954;28;20288;-39
2023/09/30 07:48:55;;;;;;;23.50;11.25;;;;;;;;;;5113860;28;20080;-39
2023/09/30 07:51:20;;;;;;;23.83;11.37;;;;;;;;;;5114402;28;20041;-39
2023/09/30 07:53:46;;;;;;;25.17;10.82;;;;;;;;;;5114169;28;20020;-40
2023/09/30 07:56:11;;;;;;;23.13;11.18;;;;;;;;;;5113759;28;20533;-39
2023/09/30 07:58:36;;;;;;;20.37;10.30;;;;;;;;;;5113649;28;20454;-39
2023/09/30 08:01:01;;;;;;;21.57;9.47;;;;;;;;;;5113554;28;20024;-40
2023/09/30 08:03:26;;;;;;;16.43;8.80;;;;;;;;;;5113444;28;20301;-39
2023/09/30 08:05:52;;;;;;;18.20;9.53;;;;;;;;;;5095142;28;20374;-39
2023/09/30 08:08:17;;;;;;;19.83;9.90;;;;;;;;;;5095108;28;20771;-39
2023/09/30 08:10:42;;;;;;;17.48;9.40;;;;;;;;;;5113444;28;20094;-39
2023/09/30 08:13:09;;;;;;;18.92;9.55;;;;;;;;;;5113497;28;20016;-40
2023/09/30 08:15:35;;;;;;;18.33;9.45;;;;;;;;;;5113654;28;20016;-39
2023/09/30 08:18:01;;;;;;;19.80;9.50;;;;;;;;;;5113603;28;20031;-39
2023/09/30 08:20:26;;;;;;;24.05;9.40;;;;;;;;;;5113888;28;20022;-40
2023/09/30 08:22:51;;;;;;;18.43;9.33;;;;;;;;;;5113624;28;20100;-40
2023/09/30 08:25:16;;;;;;;23.75;9.88;;;;;;;;;;5113957;28;20783;-40
2023/09/30 08:27:42;;;;;;;19.13;9.80;;;;;;;;;;5113551;28;20502;-39
2023/09/30 08:30:07;;;;;;;21.52;9.68;;;;;;;;;;5114541;28;20020;-40
2023/09/30 08:32:36;;;;;;;20.17;9.05;;;;;;;;;;5113780;28;20020;-40
2023/09/30 08:35:03;;;;;;;19.92;9.95;;;;;;;;;;5113467;28;20019;-38
2023/09/30 08:37:28;;;;;;;17.58;9.38;;;;;;;;;;5114195;28;20016;-39
2023/09/30 08:39:54;;;;;;;19.10;9.63;;;;;;;;;;5113489;28;20018;-39
2023/09/30 08:42:20;;;;;;;21.03;9.23;;;;;;;;;;5113409;28;20026;-46
2023/09/30 08:44:46;;;;;;;18.50;8.60;;;;;;;;;;5113954;28;20271;-39
2023/09/30 08:47:11;;;;;;;22.52;9.45;;;;;;;;;;5113911;28;20073;-39
2023/09/30 08:49:41;;;;;;;20.92;9.38;;;;;;;;;;5113360;28;20055;-39
2023/09/30 08:52:06;;;;;;;20.63;9.07;;;;;;;;;;5094987;28;20020;-40
2023/09/30 08:54:31;;;;;;;18.45;8.63;;;;;;;;;;5113210;28;20419;-40
2023/09/30 08:56:57;;;;;;;17.65;8.43;;;;;;;;;;5115888;28;20442;-39
2023/09/30 08:59:23;;;;;;;19.88;7.90;;;;;;;;;;5117261;28;20374;-39
2023/09/30 09:01:48;;;;;;;18.30;7.63;;;;;;;;;;5117126;28;20011;-40
2023/09/30 09:04:14;;;;;;;16.67;8.13;;;;;;;;;;5116714;28;20023;-40
2023/09/30 09:06:41;;;;;;;16.27;8.40;;;;;;;;;;5117087;28;20098;-40
2023/09/30 09:09:12;;;;;;;21.58;8.52;;;;;;;;;;5098381;28;20355;-39
2023/09/30 09:11:38;;;;;;;20.77;8.77;;;;;;;;;;5116742;28;20552;-40
2023/09/30 09:14:03;;;;;;;16.30;7.60;;;;;;;;;;5116591;28;20042;-39
2023/09/30 09:16:29;;;;;;;22.47;8.73;;;;;;;;;;5116560;28;20285;-39
2023/09/30 09:18:55;;;;;;;15.20;8.23;;;;;;;;;;5116647;28;20015;-39
2023/09/30 09:21:22;;;;;;;19.63;8.37;;;;;;;;;;5117091;28;20029;-40
2023/09/30 09:23:48;;;;;;;15.43;8.20;;;;;;;;;;5116377;28;20334;-39
2023/09/30 09:26:24;;;;;;;19.02;7.95;;;;;;;;;;5116932;28;20024;-39
2023/09/30 09:28:49;;;;;;;16.48;7.53;;;;;;;;;;5116637;28;20024;-40
2023/09/30 09:31:26;;;;;;;17.13;7.70;;;;;;;;;;5116336;28;20018;-39
2023/09/30 09:33:51;;;;;;;15.45;7.50;;;;;;;;;;5116509;28;20098;-39
2023/09/30 09:36:17;;;;;;;13.73;6.82;;;;;;;;;;5116483;28;20043;-39
2023/09/30 09:38:49;;;;;;;14.75;6.03;;;;;;;;;;5115767;28;20481;-40
2023/09/30 09:41:14;;;;;;;;;;;;;;;;;;5116693;28;20043;-41
2023/09/30 09:43:43;;;;;;;17.47;6.60;;;;;;;;;;5116155;28;20345;-40
2023/09/30 09:46:09;;;;;;;15.15;6.18;;;;;;;;;;5116782;28;20028;-40
2023/09/30 09:48:35;;;;;;;14.30;5.72;;;;;;;;;;5116106;28;20040;-40
2023/09/30 09:51:01;;;;;;;15.95;5.63;;;;;;;;;;5116768;28;20030;-40
2023/09/30 09:53:29;;;;;;;11.73;5.40;;;;;;;;;;5115811;28;20019;-41
2023/09/30 09:55:56;;;;;;;13.95;5.60;;;;;;;;;;5116174;28;20448;-41
2023/09/30 09:58:21;;;;;;;14.18;5.82;;;;;;;;;;5115798;28;20055;-40
2023/09/30 10:00:46;;;;;;;15.20;5.63;;;;;;;;;;5115486;28;20087;-39
2023/09/30 10:03:12;;;;;;;15.37;4.67;;;;;;;;;;5115542;28;20068;-40
2023/09/30 10:05:39;;;;;;;17.50;5.10;;;;;;;;;;5115464;28;20257;-39
2023/09/30 10:08:06;;;;;;;18.48;5.28;;;;;;;;;;5096836;28;20103;-41
2023/09/30 10:10:35;;;;;;;14.75;5.38;;;;;;;;;;5115651;28;20363;-39
2023/09/30 10:13:02;;;;;;;13.27;5.03;;;;;;;;;;5115145;28;20374;-40
2023/09/30 10:15:28;;;;;;;12.65;4.72;;;;;;;;;;5115273;28;20484;-39
2023/09/30 10:17:59;;;;;;;25.70;5.78;;;;;;;;;;5115265;28;20019;-40
2023/09/30 10:20:29;;;;;;;13.43;5.05;;;;;;;;;;5115659;28;20426;-39
2023/09/30 10:23:13;;;;;;;15.95;5.32;;;;;;;;;;5115356;28;20007;-40
2023/09/30 10:25:46;;;;;;;10.20;4.13;;;;;;;;;;5115427;28;20019;-41
2023/09/30 10:28:30;;;;;;;12.45;4.10;;;;;;;;;;5115355;28;20015;-41
2023/09/30 10:31:30;;;;;;;10.98;4.10;;;;;;;;;;5114664;28;20019;-40
2023/09/30 10:34:02;;;;;;;12.60;4.25;;;;;;;;;;5011439;28;20174;-40
2023/09/30 10:36:32;;;;;;;12.05;4.05;;;;;;;;;;5097499;28;20389;-40
2023/09/30 10:38:57;;;;;;;13.18;4.25;;;;;;;;;;5115822;28;20019;-40
2023/09/30 10:41:40;;;;;;;9.75;3.70;;;;;;;;;;5114946;28;20022;-41
2023/09/30 10:44:25;;;;;;;11.63;3.58;;;;;;;;;;5115566;28;20105;-41
2023/09/30 10:46:50;;;;;;;13.70;3.60;;;;;;;;;;5114576;28;20045;-40
2023/09/30 10:49:38;;;;;;;10.15;3.67;;;;;;;;;;5114539;28;20051;-40
2023/09/30 10:52:04;;;;;;;11.10;3.38;;;;;;;;;;5114978;28;20012;-40
2023/09/30 10:54:32;;;;;;;9.85;3.63;;;;;;;;;;5114539;28;20057;-40
2023/09/30 10:56:59;;;;;;;15.93;3.85;;;;;;;;;;5115137;28;20385;-40
2023/09/30 10:59:31;;;;;;;13.48;3.50;;;;;;;;;;5114487;28;20048;-40
2023/09/30 11:01:56;;;;;;;12.35;3.80;;;;;;;;;;5113905;28;20018;-40
2023/09/30 11:04:22;;;;;;;13.17;3.67;;;;;;;;;;5113758;28;20024;-41
2023/09/30 11:06:47;;;;;;;9.13;3.25;;;;;;;;;;5113817;28;20291;-40
2023/09/30 11:09:16;;;;;;;11.85;3.83;;;;;;;;;;5113733;28;20063;-40
2023/09/30 11:11:51;;;;;;;10.48;3.33;;;;;;;;;;5114376;28;20086;-40
2023/09/30 11:14:19;;;;;;;9.23;3.47;;;;;;;;;;5114145;28;20079;-40
2023/09/30 11:16:45;;;;;;;16.38;3.25;;;;;;;;;;5114592;28;20020;-40
2023/09/30 11:19:11;;;;;;;8.50;2.78;;;;;;;;;;5114091;28;20022;-40
2023/09/30 11:21:37;;;;;;;10.85;3.40;;;;;;;;;;5095026;28;20024;-40
2023/09/30 11:24:02;;;;;;;10.77;3.10;;;;;;;;;;5113745;28;20489;-41
2023/09/30 11:26:33;;;;;;;19.02;3.70;;;;;;;;;;5095508;28;20063;-40
2023/09/30 11:29:06;;;;;;;9.77;3.50;;;;;;;;;;5112686;28;20027;-40
2023/09/30 11:31:33;;;;;;;8.45;3.20;;;;;;;;;;5113590;28;20036;-40
2023/09/30 11:34:03;;;;;;;12.80;3.25;;;;;;;;;;5113544;28;20031;-40
2023/09/30 11:36:28;;;;;;;10.07;3.03;;;;;;;;;;5095290;28;20024;-40
2023/09/30 11:38:54;;;;;;;15.60;2.90;;;;;;;;;;5113580;28;20023;-40
2023/09/30 11:41:19;;;;;;;12.20;3.13;;;;;;;;;;5113744;28;20043;-40
2023/09/30 11:44:01;;;;;;;9.63;2.65;;;;;;;;;;5113577;28;20015;-40
2023/09/30 11:46:29;;;;;;;8.88;2.50;;;;;;;;;;5114026;28;20485;-40
2023/09/30 11:49:01;;;;;;;8.98;2.88;;;;;;;;;;5113632;28;20096;-40
2023/09/30 11:51:28;;;;;;;9.77;2.58;;;;;;;;;;5114270;28;20028;-40
2023/09/30 11:53:54;;;;;;;9.40;2.97;;;;;;;;;;5114151;28;20091;-40
2023/09/30 11:56:20;;;;;;;11.02;2.80;;;;;;;;;;5113924;28;20045;-40
2023/09/30 11:58:46;;;;;;;8.13;2.72;;;;;;;;;;5114033;28;20023;-40
2023/09/30 12:01:13;;;;;;;8.65;2.50;;;;;;;;;;5114082;28;20090;-43
2023/09/30 12:03:39;;;;;;;14.23;3.35;;;;;;;;;;5113940;28;20024;-40
2023/09/30 12:06:05;;;;;;;11.88;3.28;;;;;;;;;;5113508;28;20058;-40
2023/09/30 12:08:30;;;;;;;10.23;2.90;;;;;;;;;;5113335;28;20056;-40
2023/09/30 12:10:55;;;;;;;12.93;3.37;;;;;;;;;;5113865;28;20015;-40
2023/09/30 12:13:21;;;;;;;10.40;3.60;;;;;;;;;;5113748;28;20038;-40
2023/09/30 12:15:46;;;;;;;11.67;3.40;;;;;;;;;;5113699;28;20018;-40
2023/09/30 12:18:13;;;;;;;12.45;3.58;;;;;;;;;;5113535;28;20293;-40
2023/09/30 12:20:38;;;;;;;15.45;3.80;;;;;;;;;;5113393;28;20034;-40
2023/09/30 12:23:05;;;;;;;12.15;3.42;;;;;;;;;;5113389;28;20015;-40
2023/09/30 12:25:31;;;;;;;12.75;3.40;;;;;;;;;;5113626;28;20091;-40
2023/09/30 12:27:57;;;;;;;9.00;3.38;;;;;;;;;;5113367;28;20023;-40
2023/09/30 12:30:22;;;;;;;9.23;3.43;;;;;;;;;;5113251;28;20026;-40
2023/09/30 12:32:47;;;;;;;11.33;3.37;;;;;;;;;;5117552;28;20268;-41
2023/09/30 12:35:12;;;;;;;14.27;3.80;;;;;;;;;;5117361;28;20641;-40
2023/09/30 12:37:38;;;;;;;14.53;3.67;;;;;;;;;;5116737;28;20020;-40
2023/09/30 12:40:06;;;;;;;10.88;3.60;;;;;;;;;;5117036;28;20282;-40
2023/09/30 12:42:31;;;;;;;12.45;3.38;;;;;;;;;;5117508;28;20016;-41
2023/09/30 12:44:57;;;;;;;11.97;3.17;;;;;;;;;;5117896;28;20334;-40
2023/09/30 12:47:22;;;;;;;13.47;3.10;;;;;;;;;;5098779;28;20790;-42
2023/09/30 12:49:47;;;;;;;14.60;3.07;;;;;;;;;;5116985;28;20044;-40
2023/09/30 12:52:12;;;;;;;12.77;3.00;;;;;;;;;;5117023;28;20298;-40
2023/09/30 12:54:37;;;;;;;10.83;2.83;;;;;;;;;;5116877;28;20094;-40
2023/09/30 12:57:03;;;;;;;11.95;2.55;;;;;;;;;;5117171;28;20257;-40
2023/09/30 12:59:28;;;;;;;8.20;2.40;;;;;;;;;;5116715;28;20023;-40
2023/09/30 13:01:53;;;;;;;8.20;2.60;;;;;;;;;;5116196;28;20047;-40
2023/09/30 13:04:18;;;;;;;10.60;2.70;;;;;;;;;;5116119;28;20377;-41
2023/09/30 13:06:44;;;;;;;11.88;2.40;;;;;;;;;;5116257;28;20679;-41
2023/09/30 13:09:11;;;;;;;9.48;2.83;;;;;;;;;;5116180;28;20027;-41
2023/09/30 13:11:36;;;;;;;12.40;2.40;;;;;;;;;;5097744;28;20458;-41
2023/09/30 13:14:02;;;;;;;10.40;2.93;;;;;;;;;;5115853;28;20064;-40
2023/09/30 13:16:27;;;;;;;9.70;2.92;;;;;;;;;;5116345;28;20271;-42
2023/09/30 13:18:52;;;;;;;13.93;3.53;;;;;;;;;;5116846;28;20057;-40
2023/09/30 13:21:18;;;;;;;13.30;3.00;;;;;;;;;;5116899;28;20369;-41
2023/09/30 13:23:43;;;;;;;12.02;3.55;;;;;;;;;;5116382;28;20081;-40
2023/09/30 13:26:08;;;;;;;12.80;2.85;;;;;;;;;;5116605;28;20019;-39
2023/09/30 13:28:34;;;;;;;15.32;2.90;;;;;;;;;;5116188;28;20024;-40
2023/09/30 13:30:59;;;;;;;12.30;3.27;;;;;;;;;;5116407;28;20015;-40
2023/09/30 13:33:24;;;;;;;11.90;3.30;;;;;;;;;;5116273;28;20466;-39
2023/09/30 13:35:49;;;;;;;10.67;3.33;;;;;;;;;;5116319;28;20715;-40
2023/09/30 13:38:16;;;;;;;9.25;3.17;;;;;;;;;;5116505;28;20016;-40
2023/09/30 13:40:41;;;;;;;11.10;3.03;;;;;;;;;;5116284;28;20020;-40
2023/09/30 13:43:06;;;;;;;10.83;3.20;;;;;;;;;;5116144;28;20440;-40
2023/09/30 13:45:31;;;;;;;9.67;3.20;;;;;;;;;;5116077;28;20011;-39
2023/09/30 13:47:56;;;;;;;13.45;3.80;;;;;;;;;;5116123;28;20042;-39
2023/09/30 13:50:22;;;;;;;15.95;3.50;;;;;;;;;;5116293;28;20055;-39
2023/09/30 13:52:47;;;;;;;16.70;3.47;;;;;;;;;;5116521;28;20366;-40
2023/09/30 13:55:18;;;;;;;12.20;3.53;;;;;;;;;;5115917;28;20076;-39
2023/09/30 13:57:44;;;;;;;13.98;3.40;;;;;;;;;;5115870;28;20027;-40
2023/09/30 14:00:10;;;;;;;11.88;3.53;;;;;;;;;;5097537;28;20065;-40
2023/09/30 14:02:35;;;;;;;11.43;3.47;;;;;;;;;;5115848;28;20059;-39
2023/09/30 14:05:01;;;;;;;11.00;3.42;;;;;;;;;;5116019;28;20037;-40
2023/09/30 14:07:27;;;;;;;15.65;3.50;;;;;;;;;;5115673;28;20035;-40
2023/09/30 14:09:53;;;;;;;8.85;3.13;;;;;;;;;;5115573;28;20102;-39
2023/09/30 14:12:18;;;;;;;12.52;3.42;;;;;;;;;;5115832;28;20077;-39
2023/09/30 14:14:43;;;;;;;11.67;3.30;;;;;;;;;;5115736;28;20464;-40
2023/09/30 14:17:10;;;;;;;10.52;3.30;;;;;;;;;;5115517;28;20246;-39
2023/09/30 14:19:36;;;;;;;12.80;3.30;;;;;;;;;;5115955;28;20015;-40
2023/09/30 14:22:04;;;;;;;11.77;3.15;;;;;;;;;;5115599;28;20472;-40
2023/09/30 14:24:29;;;;;;;11.55;3.20;;;;;;;;;;5115609;28;20022;-41